Time;durP1;ratioP1;P1;durP2;ratioP2;P2;SDS_P1;SDS_P2;PMS_P1;PMS_P2;Temp;Humidity;BMP_temperature;BMP_pressure;BME280_temperature;BME280_humidity;BME280_pressure;Samples;Min_cycle;Max_cycle;Signal;HPM_P1;HPM_P2
2021/03/27 00:01:51;;;;;;;7.13;5.88;;;10.60;99.90;;;;;;5088910;28;20215;-76
2021/03/27 00:04:25;;;;;;;7.60;5.80;;;10.50;99.90;;;;;;5088724;28;20240;-76
2021/03/27 00:06:56;;;;;;;7.35;5.78;;;10.40;99.90;;;;;;5089123;28;20677;-76
2021/03/27 00:09:35;;;;;;;6.65;5.22;;;10.30;99.90;;;;;;5085842;28;20205;-76
2021/03/27 00:12:10;;;;;;;8.60;4.88;;;10.20;99.90;;;;;;5093068;28;20726;-76
2021/03/27 00:14:42;;;;;;;6.75;5.38;;;10.10;99.90;;;;;;5098777;28;20526;-76
2021/03/27 00:17:12;;;;;;;6.32;4.45;;;10.00;99.90;;;;;;5087669;28;20196;-76
2021/03/27 00:19:46;;;;;;;7.28;3.25;;;9.90;99.90;;;;;;5088410;28;20231;-76
2021/03/27 00:22:20;;;;;;;7.45;4.00;;;9.80;99.90;;;;;;5088487;28;20204;-75
2021/03/27 00:25:05;;;;;;;4.68;3.90;;;9.70;99.90;;;;;;5088373;28;20225;-75
2021/03/27 00:27:37;;;;;;;3.15;2.92;;;9.50;99.90;;;;;;5087567;28;20212;-75
2021/03/27 00:30:07;;;;;;;3.35;3.10;;;9.50;99.90;;;;;;5088970;28;20205;-75
2021/03/27 00:32:38;;;;;;;3.67;3.05;;;9.30;99.90;;;;;;5091766;28;20200;-74
2021/03/27 00:35:09;;;;;;;6.43;4.22;;;9.20;99.90;;;;;;5088913;28;20208;-74
2021/03/27 00:37:37;;;;;;;4.60;4.20;;;9.10;99.90;;;;;;5088115;28;20621;-74
2021/03/27 00:40:09;;;;;;;7.38;4.25;;;9.00;99.90;;;;;;5091505;28;20200;-75
2021/03/27 00:42:39;;;;;;;7.35;4.93;;;8.90;99.90;;;;;;5088999;28;20212;-75
2021/03/27 00:45:12;;;;;;;7.05;4.63;;;8.90;99.90;;;;;;5092508;28;20225;-76
2021/03/27 00:47:41;;;;;;;7.97;4.75;;;8.70;99.90;;;;;;5088834;28;20209;-74
2021/03/27 00:50:12;;;;;;;7.15;4.78;;;8.60;99.90;;;;;;5091944;28;20208;-75
2021/03/27 00:52:46;;;;;;;9.23;5.88;;;8.40;99.90;;;;;;5088084;28;20205;-76
2021/03/27 00:55:15;;;;;;;7.82;6.22;;;8.40;99.90;;;;;;5093014;28;20215;-74
2021/03/27 00:57:47;;;;;;;11.13;6.15;;;8.20;99.90;;;;;;5097684;28;20207;-76
2021/03/27 01:00:19;;;;;;;5.97;5.30;;;8.10;99.90;;;;;;5089730;28;20200;-74
2021/03/27 01:02:52;;;;;;;11.07;7.40;;;8.10;99.90;;;;;;5087862;28;20235;-76
2021/03/27 01:05:23;;;;;;;10.80;7.50;;;8.10;99.90;;;;;;5094010;28;20232;-75
2021/03/27 01:07:51;;;;;;;8.95;7.30;;;8.10;99.90;;;;;;5092488;28;20250;-76
2021/03/27 01:10:22;;;;;;;10.07;8.48;;;7.90;99.90;;;;;;5087515;28;20208;-76
2021/03/27 01:12:52;;;;;;;16.10;9.35;;;7.80;99.90;;;;;;5091856;28;20212;-75
2021/03/27 01:15:24;;;;;;;15.30;9.88;;;7.80;99.90;;;;;;5095245;28;20201;-75
2021/03/27 01:17:54;;;;;;;18.80;11.60;;;7.80;99.90;;;;;;5094783;28;20688;-76
2021/03/27 01:20:25;;;;;;;17.75;10.20;;;7.80;99.90;;;;;;5086807;28;20200;-74
2021/03/27 01:22:54;;;;;;;9.02;7.40;;;7.70;99.90;;;;;;5087141;28;20208;-76
2021/03/27 01:25:23;;;;;;;8.07;5.35;;;7.60;99.90;;;;;;5086692;28;20239;-76
2021/03/27 01:27:54;;;;;;;8.35;6.57;;;7.60;99.90;;;;;;5087161;28;20211;-75
2021/03/27 01:30:30;;;;;;;8.00;5.75;;;7.50;99.90;;;;;;5092045;28;20204;-76
2021/03/27 01:33:05;;;;;;;12.85;6.55;;;7.50;99.90;;;;;;5087640;28;20193;-75
2021/03/27 01:35:40;;;;;;;11.13;5.82;;;7.50;99.90;;;;;;5087805;28;20204;-76
2021/03/27 01:38:13;;;;;;;9.02;5.32;;;7.50;99.90;;;;;;5094375;28;20310;-76
2021/03/27 01:40:51;;;;;;;9.25;5.78;;;7.50;99.90;;;;;;5086017;28;20660;-77
2021/03/27 01:43:27;;;;;;;10.57;5.65;;;7.40;99.90;;;;;;5093991;28;20564;-74
2021/03/27 01:46:22;;;;;;;9.95;5.40;;;7.40;99.90;;;;;;5086965;28;20751;-75
2021/03/27 01:48:59;;;;;;;4.38;3.97;;;7.30;99.90;;;;;;5091563;28;20264;-75
2021/03/27 01:52:06;;;;;;;8.48;5.00;;;7.40;99.90;;;;;;5094832;28;20196;-76
2021/03/27 01:54:36;;;;;;;4.82;4.22;;;7.30;99.90;;;;;;5087734;28;20211;-76
2021/03/27 01:57:13;;;;;;;6.30;4.50;;;7.30;99.90;;;;;;5087012;28;20290;-76
2021/03/27 01:59:44;;;;;;;7.18;3.83;;;7.20;99.90;;;;;;5086035;28;20196;-74
2021/03/27 02:02:17;;;;;;;6.95;4.40;;;7.20;99.90;;;;;;5086958;28;20201;-73
2021/03/27 02:04:49;;;;;;;6.95;3.92;;;7.30;99.90;;;;;;5086486;28;20253;-76
2021/03/27 02:07:23;;;;;;;8.75;3.90;;;7.30;99.90;;;;;;5087336;28;20646;-74
2021/03/27 02:09:56;;;;;;;5.13;4.15;;;7.30;99.90;;;;;;5086835;28;20219;-75
2021/03/27 02:12:42;;;;;;;7.78;4.85;;;7.30;99.90;;;;;;5090172;28;20200;-75
2021/03/27 02:15:15;;;;;;;5.07;3.50;;;7.30;99.90;;;;;;5086189;28;20279;-76
2021/03/27 02:17:50;;;;;;;5.55;3.80;;;7.30;99.90;;;;;;5095769;28;20268;-76
2021/03/27 02:20:50;;;;;;;5.60;3.63;;;7.30;99.90;;;;;;5086357;28;20558;-77
2021/03/27 02:23:28;;;;;;;3.58;3.38;;;7.20;99.90;;;;;;5085332;28;20204;-76
2021/03/27 02:26:23;;;;;;;7.60;3.13;;;7.30;99.90;;;;;;5089502;28;20228;-77
2021/03/27 02:32:00;;;;;;;4.03;2.38;;;7.10;99.90;;;;;;5069419;28;20204;-77
2021/03/27 02:34:37;;;;;;;6.20;2.35;;;7.10;99.90;;;;;;5085646;28;20211;-76
2021/03/27 02:37:08;;;;;;;6.10;2.35;;;7.00;99.90;;;;;;5092032;28;20207;-75
2021/03/27 02:39:43;;;;;;;5.57;3.22;;;7.00;99.90;;;;;;5092250;28;20671;-76
2021/03/27 02:42:26;;;;;;;3.35;2.65;;;6.90;99.90;;;;;;5086427;28;20191;-76
2021/03/27 02:44:56;;;;;;;5.68;3.00;;;6.90;99.90;;;;;;5086049;28;20235;-76
2021/03/27 02:47:36;;;;;;;7.15;3.85;;;6.80;99.90;;;;;;5086426;28;20203;-75
2021/03/27 02:50:16;;;;;;;14.05;3.85;;;6.80;99.90;;;;;;5085626;28;20212;-75
2021/03/27 02:52:56;;;;;;;7.82;3.58;;;6.80;99.90;;;;;;5089964;28;20204;-75
2021/03/27 02:55:27;;;;;;;6.97;3.03;;;6.80;99.90;;;;;;5084752;28;20298;-75
2021/03/27 02:58:01;;;;;;;8.25;2.85;;;6.80;99.90;;;;;;5085585;28;20211;-76
2021/03/27 03:00:36;;;;;;;6.00;3.10;;;6.90;99.90;;;;;;5086100;28;20203;-75
2021/03/27 03:03:12;;;;;;;4.95;2.50;;;6.80;99.90;;;;;;5086010;28;20235;-75
2021/03/27 03:05:43;;;;;;;7.78;4.30;;;6.90;99.90;;;;;;5091539;28;20304;-76
2021/03/27 03:08:18;;;;;;;6.75;3.20;;;6.90;99.90;;;;;;5088948;28;20192;-75
2021/03/27 03:10:53;;;;;;;4.88;2.80;;;6.90;99.90;;;;;;5089814;28;20230;-75
2021/03/27 03:13:26;;;;;;;4.40;3.22;;;6.90;99.90;;;;;;5085649;28;20562;-75
2021/03/27 03:15:58;;;;;;;5.75;3.10;;;6.90;99.90;;;;;;5085781;28;20216;-75
2021/03/27 03:18:38;;;;;;;4.68;3.20;;;6.90;99.90;;;;;;5085080;28;20227;-75
2021/03/27 03:21:10;;;;;;;8.13;3.42;;;7.00;99.90;;;;;;5085558;28;20232;-75
2021/03/27 03:23:42;;;;;;;4.07;2.65;;;6.90;99.90;;;;;;5089429;28;20200;-75
2021/03/27 03:26:29;;;;;;;9.00;3.05;;;6.90;99.90;;;;;;5084711;28;20240;-75
2021/03/27 03:29:02;;;;;;;10.18;2.55;;;6.90;99.90;;;;;;5085428;28;20200;-75
2021/03/27 03:31:54;;;;;;;4.70;2.53;;;6.80;99.90;;;;;;5085582;28;20201;-75
2021/03/27 03:34:36;;;;;;;6.43;3.22;;;6.80;99.90;;;;;;5089097;28;20539;-75
2021/03/27 03:37:15;;;;;;;4.05;2.92;;;6.70;99.90;;;;;;5085840;28;20230;-75
2021/03/27 03:40:07;;;;;;;6.63;2.40;;;6.70;99.90;;;;;;5095583;28;20208;-75
2021/03/27 03:43:00;;;;;;;8.18;3.35;;;6.70;99.90;;;;;;5081563;28;20204;-75
2021/03/27 03:45:39;;;;;;;5.60;3.20;;;6.60;99.90;;;;;;5092444;28;20220;-75
2021/03/27 03:48:16;;;;;;;4.15;3.80;;;6.50;99.90;;;;;;5092901;28;20203;-75
2021/03/27 03:50:50;;;;;;;6.20;3.45;;;6.50;99.90;;;;;;5089659;28;20208;-75
2021/03/27 03:53:28;;;;;;;3.92;3.13;;;6.50;99.90;;;;;;5088123;28;20226;-74
2021/03/27 03:56:06;;;;;;;3.83;2.53;;;6.60;99.90;;;;;;5089878;28;20564;-74
2021/03/27 03:58:48;;;;;;;6.25;3.20;;;6.60;99.90;;;;;;5092134;28;20295;-74
2021/03/27 04:01:27;;;;;;;7.85;3.30;;;6.60;99.90;;;;;;5088659;28;20231;-75
2021/03/27 04:04:00;;;;;;;4.15;2.78;;;6.60;99.90;;;;;;5088927;28;20239;-74
2021/03/27 04:06:31;;;;;;;6.18;3.15;;;6.60;99.90;;;;;;5089000;28;20211;-74
2021/03/27 04:09:03;;;;;;;6.80;2.63;;;6.60;99.90;;;;;;5089325;28;20205;-74
2021/03/27 04:11:40;;;;;;;8.68;4.20;;;6.60;99.90;;;;;;5098805;28;20199;-74
2021/03/27 04:14:16;;;;;;;6.93;3.75;;;6.60;99.90;;;;;;5088536;28;20564;-74
2021/03/27 04:16:44;;;;;;;6.72;3.10;;;6.50;99.90;;;;;;5088594;28;20204;-74
2021/03/27 04:19:16;;;;;;;10.88;4.30;;;6.50;99.90;;;;;;5087925;28;20207;-74
2021/03/27 04:21:54;;;;;;;10.90;3.60;;;6.50;99.90;;;;;;5095877;28;20200;-75
2021/03/27 04:24:27;;;;;;;5.68;3.88;;;6.40;99.90;;;;;;5096511;28;20223;-75
2021/03/27 04:26:58;;;;;;;7.85;5.18;;;6.30;99.90;;;;;;5095730;28;20229;-75
2021/03/27 04:29:33;;;;;;;11.20;4.97;;;6.30;99.90;;;;;;5097667;28;20196;-75
2021/03/27 04:32:26;;;;;;;6.10;3.53;;;6.30;99.90;;;;;;5088743;28;20662;-75
2021/03/27 04:35:00;;;;;;;6.90;4.05;;;6.30;99.90;;;;;;5088252;28;20207;-75
2021/03/27 04:37:33;;;;;;;8.27;3.50;;;6.30;99.90;;;;;;5090000;28;20230;-74
2021/03/27 04:40:08;;;;;;;4.47;3.45;;;6.30;99.90;;;;;;5097820;28;22299;-75
2021/03/27 04:42:43;;;;;;;11.10;3.97;;;6.30;99.90;;;;;;5092962;28;20211;-75
2021/03/27 04:45:19;;;;;;;6.88;3.83;;;6.20;99.90;;;;;;5092287;28;20228;-75
2021/03/27 04:47:59;;;;;;;11.95;3.60;;;6.20;99.90;;;;;;5088348;28;20212;-75
2021/03/27 04:50:34;;;;;;;8.65;3.60;;;6.30;99.90;;;;;;5093101;28;20196;-74
2021/03/27 04:53:10;;;;;;;4.60;3.10;;;6.30;99.90;;;;;;5088256;28;20254;-74
2021/03/27 04:55:42;;;;;;;13.27;3.83;;;6.30;99.90;;;;;;5097335;28;20230;-74
2021/03/27 04:58:23;;;;;;;13.65;3.55;;;6.30;99.90;;;;;;5090925;28;20203;-74
2021/03/27 05:01:06;;;;;;;13.38;3.88;;;6.30;99.90;;;;;;5090125;28;20204;-74
2021/03/27 05:03:37;;;;;;;6.93;3.97;;;6.40;99.90;;;;;;5089838;28;20233;-74
2021/03/27 05:06:12;;;;;;;10.05;3.75;;;6.50;99.90;;;;;;5088251;28;21173;-75
2021/03/27 05:08:58;;;;;;;11.30;3.88;;;6.60;99.90;;;;;;5091931;28;20202;-74
2021/03/27 05:11:50;;;;;;;4.88;3.20;;;6.70;99.90;;;;;;5087084;28;20200;-74
2021/03/27 05:14:37;;;;;;;8.80;3.50;;;6.70;99.90;;;;;;5086680;28;20201;-74
2021/03/27 05:17:09;;;;;;;13.75;5.15;;;6.70;99.90;;;;;;5087880;28;20196;-74
2021/03/27 05:19:42;;;;;;;6.50;3.78;;;6.60;99.90;;;;;;5086055;28;20204;-74
2021/03/27 05:22:38;;;;;;;6.28;3.78;;;6.70;99.90;;;;;;5087364;28;20192;-74
2021/03/27 05:25:22;;;;;;;8.43;3.30;;;6.60;99.90;;;;;;5093630;28;20494;-74
2021/03/27 05:28:12;;;;;;;8.80;2.88;;;6.70;99.90;;;;;;5093229;28;20253;-75
2021/03/27 05:30:48;;;;;;;6.57;3.50;;;6.70;99.90;;;;;;5085015;28;20233;-76
2021/03/27 05:33:31;;;;;;;5.90;3.15;;;6.70;99.90;;;;;;5087089;28;20481;-75
2021/03/27 05:36:26;;;;;;;10.30;3.17;;;6.70;99.90;;;;;;5092707;28;20207;-75
2021/03/27 05:38:57;;;;;;;9.05;3.25;;;6.70;99.90;;;;;;5065614;28;20205;-75
2021/03/27 05:42:09;;;;;;;4.55;2.10;;;6.80;99.90;;;;;;5089959;28;20200;-75
2021/03/27 05:45:15;;;;;;;7.78;3.67;;;6.80;99.90;;;;;;5083674;28;20223;-75
2021/03/27 05:48:39;;;;;;;10.45;3.42;;;6.70;99.90;;;;;;5096568;28;20215;-75
2021/03/27 05:51:58;;;;;;;19.48;3.75;;;6.70;99.90;;;;;;5036682;28;20197;-75
2021/03/27 05:54:46;;;;;;;9.93;3.33;;;6.80;99.90;;;;;;5028231;28;20213;-75
2021/03/27 05:57:26;;;;;;;14.60;3.50;;;6.80;99.90;;;;;;5031733;28;20208;-75
2021/03/27 06:00:27;;;;;;;5.53;2.97;;;6.80;99.90;;;;;;5029849;28;20198;-75
2021/03/27 06:03:17;;;;;;;12.95;3.65;;;6.90;99.90;;;;;;5041714;28;20237;-74
2021/03/27 06:06:23;;;;;;;7.50;2.95;;;6.90;99.90;;;;;;5032446;28;20210;-75
2021/03/27 06:09:11;;;;;;;8.85;2.63;;;6.90;99.90;;;;;;5020624;28;20650;-75
2021/03/27 06:11:41;;;;;;;9.50;2.38;;;7.00;99.90;;;;;;5027298;28;20313;-75
2021/03/27 06:14:37;;;;;;;9.57;2.47;;;7.10;99.90;;;;;;5030506;28;20206;-75
2021/03/27 06:17:22;;;;;;;11.27;3.15;;;7.10;99.90;;;;;;5004335;28;20213;-75
2021/03/27 06:20:29;;;;;;;7.75;4.43;;;7.10;99.90;;;;;;5035777;28;20221;-75
2021/03/27 06:23:11;;;;;;;14.88;4.38;;;7.10;99.90;;;;;;5079834;28;20213;-75
2021/03/27 06:26:10;;;;;;;6.43;3.47;;;7.20;99.90;;;;;;5090019;28;20232;-75
2021/03/27 06:29:02;;;;;;;7.55;3.25;;;7.20;99.90;;;;;;5085029;28;20197;-75
2021/03/27 06:31:42;;;;;;;9.45;3.42;;;7.20;99.90;;;;;;5090795;28;20550;-75
2021/03/27 06:34:41;;;;;;;12.85;3.53;;;7.30;99.90;;;;;;5086082;28;20203;-75
2021/03/27 06:37:44;;;;;;;14.25;4.05;;;7.40;99.90;;;;;;5088415;28;20197;-75
2021/03/27 06:40:46;;;;;;;9.77;3.50;;;7.60;99.90;;;;;;5085549;28;20208;-75
2021/03/27 06:43:42;;;;;;;8.00;3.63;;;7.70;99.90;;;;;;5067695;28;20215;-74
2021/03/27 06:46:53;;;;;;;8.48;3.65;;;7.70;99.90;;;;;;5091782;28;20749;-75
2021/03/27 06:49:48;;;;;;;8.10;3.42;;;7.70;99.90;;;;;;5080743;28;20253;-75
2021/03/27 06:52:54;;;;;;;10.27;3.65;;;7.70;99.90;;;;;;5085212;28;20587;-75
2021/03/27 06:55:32;;;;;;;13.45;3.80;;;7.60;99.90;;;;;;5075943;28;20685;-75
2021/03/27 06:58:37;;;;;;;8.63;2.95;;;7.40;99.90;;;;;;5064468;28;20205;-75
2021/03/27 07:01:37;;;;;;;15.02;4.28;;;7.30;99.90;;;;;;5062793;28;20541;-75
2021/03/27 07:04:45;;;;;;;6.30;2.95;;;7.30;99.90;;;;;;5068101;28;20233;-74
2021/03/27 07:07:43;;;;;;;7.65;2.95;;;7.30;99.90;;;;;;5043471;28;20257;-75
2021/03/27 07:10:44;;;;;;;10.48;3.03;;;7.10;99.90;;;;;;5068339;28;20216;-74
2021/03/27 07:13:39;;;;;;;12.38;3.22;;;6.80;99.90;;;;;;5062654;28;20218;-75
2021/03/27 07:16:26;;;;;;;10.18;2.92;;;6.80;99.90;;;;;;5026622;28;20204;-74
2021/03/27 07:19:35;;;;;;;8.70;3.33;;;6.80;99.90;;;;;;5063237;28;20208;-75
2021/03/27 07:22:25;;;;;;;6.15;3.13;;;6.80;99.90;;;;;;5008135;28;20652;-75
2021/03/27 07:25:24;;;;;;;5.90;2.10;;;6.80;99.90;;;;;;5012427;28;20740;-75
2021/03/27 07:28:05;;;;;;;3.70;1.75;;;6.60;99.90;;;;;;5014398;28;20329;-75
2021/03/27 07:30:48;;;;;;;5.40;2.33;;;5.90;99.90;;;;;;5012776;28;20206;-78
2021/03/27 07:33:50;;;;;;;5.95;2.05;;;5.50;99.90;;;;;;5047870;28;20206;-75
2021/03/27 07:36:40;;;;;;;3.08;1.60;;;5.10;99.90;;;;;;5047789;28;20201;-75
2021/03/27 07:39:43;;;;;;;5.30;2.03;;;4.80;99.90;;;;;;5047418;28;20269;-75
2021/03/27 07:42:51;;;;;;;8.25;3.22;;;4.70;99.90;;;;;;5041351;28;20582;-75
2021/03/27 07:46:09;;;;;;;14.23;3.08;;;4.50;99.90;;;;;;5047034;28;20221;-75
2021/03/27 07:48:53;;;;;;;5.45;2.08;;;4.40;99.90;;;;;;5048914;28;20209;-74
2021/03/27 07:51:29;;;;;;;3.78;1.98;;;4.40;99.90;;;;;;5047847;28;20205;-74
2021/03/27 07:54:13;;;;;;;2.22;1.88;;;4.40;99.90;;;;;;5054768;28;20209;-75
2021/03/27 07:56:54;;;;;;;10.30;3.10;;;4.50;99.90;;;;;;5046697;28;20220;-74
2021/03/27 07:59:40;;;;;;;3.70;3.10;;;4.50;99.90;;;;;;5087223;28;20575;-74
2021/03/27 08:02:39;;;;;;;6.85;3.17;;;4.30;99.90;;;;;;5088532;28;20200;-75
2021/03/27 08:05:37;;;;;;;8.02;3.65;;;4.10;99.90;;;;;;5083424;28;20232;-75
2021/03/27 08:08:50;;;;;;;8.07;4.05;;;4.00;99.90;;;;;;5088131;28;20200;-75
2021/03/27 08:11:30;;;;;;;10.32;4.20;;;3.90;99.90;;;;;;5096334;28;20222;-75
2021/03/27 08:14:30;;;;;;;5.55;4.25;;;3.90;99.90;;;;;;5087801;28;20204;-75
2021/03/27 08:17:35;;;;;;;11.13;5.50;;;4.00;99.90;;;;;;5088452;28;20264;-75
2021/03/27 08:20:35;;;;;;;11.05;6.05;;;4.30;99.90;;;;;;5046266;28;20198;-75
2021/03/27 08:23:30;;;;;;;7.32;5.22;;;4.50;99.90;;;;;;5045666;28;20201;-75
2021/03/27 08:26:29;;;;;;;12.85;6.55;;;4.80;99.90;;;;;;5049245;28;20248;-74
2021/03/27 08:29:29;;;;;;;12.60;5.35;;;5.20;99.90;;;;;;5029739;28;20210;-76
2021/03/27 08:32:13;;;;;;;14.88;4.30;;;6.00;99.90;;;;;;4997988;28;20229;-75
2021/03/27 08:35:09;;;;;;;9.25;2.75;;;6.70;99.90;;;;;;5048982;28;20221;-74
2021/03/27 08:37:54;;;;;;;5.20;2.55;;;7.10;99.90;;;;;;5049804;28;20209;-75
2021/03/27 08:40:44;;;;;;;7.00;3.83;;;7.30;99.90;;;;;;5045267;28;20206;-75
2021/03/27 08:43:46;;;;;;;10.52;3.75;;;7.40;99.90;;;;;;5045933;28;20205;-75
2021/03/27 08:46:49;;;;;;;4.85;3.25;;;7.50;99.90;;;;;;5045528;28;20221;-76
2021/03/27 08:49:45;;;;;;;8.02;3.08;;;7.50;99.90;;;;;;5045680;28;20207;-76
2021/03/27 08:52:53;;;;;;;11.55;3.90;;;7.50;99.90;;;;;;5045212;28;20213;-76
2021/03/27 08:55:42;;;;;;;13.55;3.83;;;7.40;99.90;;;;;;5096125;28;20661;-76
2021/03/27 08:58:29;;;;;;;11.63;4.30;;;7.60;99.90;;;;;;5086066;28;20301;-76
2021/03/27 09:01:18;;;;;;;7.93;3.50;;;7.80;99.90;;;;;;5085853;28;20559;-76
2021/03/27 09:04:21;;;;;;;7.47;3.40;;;8.00;99.90;;;;;;5091085;28;20240;-76
2021/03/27 09:07:24;;;;;;;16.65;4.50;;;8.30;99.90;;;;;;5091693;28;20224;-76
2021/03/27 09:10:31;;;;;;;8.82;2.92;;;8.70;99.90;;;;;;5088428;28;20203;-76
2021/03/27 09:13:43;;;;;;;7.43;3.20;;;8.90;99.90;;;;;;5087784;28;20299;-75
2021/03/27 09:16:55;;;;;;;6.97;3.00;;;8.90;99.90;;;;;;5090910;28;20197;-75
2021/03/27 09:19:48;;;;;;;8.48;3.35;;;9.10;99.90;;;;;;5088697;28;20645;-75
2021/03/27 09:22:35;;;;;;;10.73;2.95;;;9.30;99.90;;;;;;5087587;28;20207;-75
2021/03/27 09:25:16;;;;;;;10.75;3.50;;;9.50;99.90;;;;;;5087513;28;20232;-75
2021/03/27 09:28:05;;;;;;;9.32;2.72;;;10.00;99.90;;;;;;5087498;28;20197;-76
2021/03/27 09:30:38;;;;;;;8.75;2.83;;;10.40;99.90;;;;;;5087598;28;20196;-76
2021/03/27 09:33:11;;;;;;;10.30;2.38;;;10.40;99.90;;;;;;5094626;28;20230;-76
2021/03/27 09:35:53;;;;;;;10.55;2.70;;;10.00;99.90;;;;;;5087117;28;20205;-76
2021/03/27 09:38:33;;;;;;;11.35;3.40;;;9.90;99.90;;;;;;5093747;28;20196;-76
2021/03/27 09:41:36;;;;;;;10.07;2.83;;;9.80;99.90;;;;;;5086809;28;20215;-76
2021/03/27 09:44:27;;;;;;;12.15;2.63;;;9.90;99.90;;;;;;5086783;28;20213;-76
2021/03/27 09:47:05;;;;;;;6.28;2.58;;;10.20;99.90;;;;;;5080766;28;20224;-76
2021/03/27 09:49:48;;;;;;;11.90;2.65;;;10.20;99.90;;;;;;5098885;28;20203;-76
2021/03/27 09:52:45;;;;;;;10.00;3.25;;;10.00;99.90;;;;;;5086903;28;20208;-76
2021/03/27 09:55:42;;;;;;;7.55;2.22;;;9.80;99.90;;;;;;5092030;28;20217;-76
2021/03/27 09:58:19;;;;;;;14.10;2.83;;;10.00;99.90;;;;;;5087288;28;20204;-76
2021/03/27 10:01:10;;;;;;;9.40;2.55;;;10.60;99.90;;;;;;5087044;28;20215;-77
2021/03/27 10:03:45;;;;;;;7.63;2.22;;;12.10;99.90;;;;;;5086432;28;20399;-76
2021/03/27 10:06:37;;;;;;;6.80;2.50;;;13.20;99.90;;;;;;5089287;28;20223;-76
2021/03/27 10:09:10;;;;;;;13.48;2.17;;;13.60;99.90;;;;;;5085047;28;20272;-75
2021/03/27 10:11:41;;;;;;;9.50;2.70;;;13.20;99.90;;;;;;5095598;28;20711;-76
2021/03/27 10:14:20;;;;;;;10.77;2.70;;;12.70;99.90;;;;;;5086318;28;20212;-76
2021/03/27 10:16:52;;;;;;;7.68;2.60;;;11.70;99.90;;;;;;5086682;28;20208;-77
2021/03/27 10:19:30;;;;;;;4.47;2.03;;;11.20;99.90;;;;;;5089649;28;20195;-75
2021/03/27 10:22:13;;;;;;;8.27;2.50;;;10.60;99.90;;;;;;5085858;28;20192;-75
2021/03/27 10:24:44;;;;;;;11.60;3.88;;;10.20;99.90;;;;;;5089635;28;20215;-75
2021/03/27 10:27:19;;;;;;;6.28;2.55;;;9.80;99.90;;;;;;5086805;28;20209;-75
2021/03/27 10:30:00;;;;;;;5.13;2.58;;;9.40;99.90;;;;;;5088985;28;20200;-75
2021/03/27 10:32:53;;;;;;;5.18;2.20;;;9.00;99.90;;;;;;5093100;28;20204;-74
2021/03/27 10:36:03;;;;;;;9.57;2.80;;;8.90;99.90;;;;;;5096343;28;20562;-75
2021/03/27 10:38:50;;;;;;;3.35;2.20;;;8.90;99.90;;;;;;5086647;28;20225;-75
2021/03/27 10:41:24;;;;;;;9.50;2.70;;;8.70;99.90;;;;;;5086600;28;20204;-74
2021/03/27 10:43:57;;;;;;;5.88;2.90;;;8.50;99.90;;;;;;5086706;28;20616;-75
2021/03/27 10:46:29;;;;;;;5.50;2.45;;;8.00;99.90;;;;;;5085571;28;20231;-74
2021/03/27 10:49:21;;;;;;;3.67;2.72;;;7.80;99.90;;;;;;5085596;28;20202;-74
2021/03/27 10:52:28;;;;;;;5.05;2.58;;;7.90;99.90;;;;;;5087343;28;20205;-74
2021/03/27 10:55:23;;;;;;;5.47;3.03;;;8.80;99.90;;;;;;5092732;28;20200;-74
2021/03/27 10:58:34;;;;;;;6.65;2.75;;;10.30;99.90;;;;;;5087904;28;20215;-74
2021/03/27 11:01:13;;;;;;;7.15;3.03;;;12.10;99.90;;;;;;5078197;28;20195;-74
2021/03/27 11:05:24;;;;;;;5.88;3.33;;;13.80;99.90;;;;;;5111221;27;20578;-74
2021/03/27 11:08:28;;;;;;;4.53;2.30;;;14.40;99.90;;;;;;5104110;28;20300;-74
2021/03/27 11:11:27;;;;;;;7.00;2.47;;;14.30;99.90;;;;;;5113755;28;20204;-74
2021/03/27 11:14:28;;;;;;;5.15;3.03;;;13.80;99.90;;;;;;5104044;28;20703;-73
2021/03/27 11:30:18;;;;;;;8.13;2.85;;;11.70;99.90;;;;;;5045304;28;20296;-74
2021/03/27 11:32:51;;;;;;;8.65;2.53;;;11.30;99.90;;;;;;5048796;28;20209;-74
2021/03/27 11:35:23;;;;;;;5.65;3.13;;;10.90;99.90;;;;;;5041127;28;20214;-73
2021/03/27 11:38:17;;;;;;;12.45;3.45;;;10.50;99.90;;;;;;5051123;28;20205;-74
2021/03/27 11:40:59;;;;;;;7.70;2.80;;;10.20;99.90;;;;;;5045877;28;20206;-74
2021/03/27 11:43:46;;;;;;;6.10;2.65;;;10.10;99.90;;;;;;5048602;28;20229;-73
2021/03/27 11:46:22;;;;;;;5.28;3.28;;;9.80;99.90;;;;;;5050547;28;20707;-74
2021/03/27 11:48:52;;;;;;;4.55;2.78;;;9.80;99.90;;;;;;5049818;28;20209;-73
2021/03/27 11:51:28;;;;;;;4.00;2.05;;;9.80;99.90;;;;;;5046173;28;20713;-74
2021/03/27 11:54:07;;;;;;;5.57;2.20;;;10.00;99.90;;;;;;5044774;28;20205;-74
2021/03/27 11:56:45;;;;;;;2.47;1.90;;;10.00;99.90;;;;;;5046061;28;20202;-74
2021/03/27 12:00:47;;;;;;;5.18;2.80;;;10.10;99.90;;;;;;5045688;28;20197;-73
2021/03/27 12:03:09;;;;;;;7.80;2.67;;;10.20;99.90;;;;;;5051863;28;20209;-74
2021/03/27 12:05:40;;;;;;;10.13;2.97;;;10.30;99.90;;;;;;5097404;28;20276;-74
2021/03/27 12:08:18;;;;;;;8.05;3.42;;;10.50;99.90;;;;;;5103257;28;20215;-74
2021/03/27 12:11:07;;;;;;;11.00;3.10;;;10.60;99.90;;;;;;5105366;28;20203;-74
2021/03/27 12:13:40;;;;;;;5.57;3.55;;;10.70;99.90;;;;;;5106700;28;20208;-73
2021/03/27 12:16:18;;;;;;;8.30;3.35;;;10.80;99.90;;;;;;5091611;28;20204;-74
2021/03/27 12:19:04;;;;;;;6.50;4.03;;;10.90;99.90;;;;;;5094509;28;20542;-74
2021/03/27 12:21:33;;;;;;;14.05;2.92;;;10.90;99.90;;;;;;5091798;28;20211;-74
2021/03/27 12:24:05;;;;;;;4.97;2.50;;;11.00;99.90;;;;;;5090609;28;20455;-74
2021/03/27 12:26:40;;;;;;;9.90;3.60;;;11.00;99.90;;;;;;5087858;28;20598;-75
2021/03/27 12:29:15;;;;;;;11.75;4.00;;;11.00;99.90;;;;;;5088503;28;20203;-74
2021/03/27 12:32:15;;;;;;;4.15;2.47;;;11.00;99.90;;;;;;5088137;28;20211;-75
2021/03/27 12:34:50;;;;;;;3.80;2.13;;;11.00;99.90;;;;;;5088298;28;20204;-74
2021/03/27 12:37:24;;;;;;;5.00;2.88;;;10.70;99.90;;;;;;5088632;28;20292;-75
2021/03/27 12:39:58;;;;;;;4.00;2.80;;;10.60;99.90;;;;;;5087511;28;20224;-75
2021/03/27 12:42:32;;;;;;;5.22;2.65;;;10.40;99.90;;;;;;5090800;28;20208;-75
2021/03/27 12:45:02;;;;;;;6.85;2.53;;;10.20;99.90;;;;;;5087741;28;20205;-75
2021/03/27 12:47:55;;;;;;;7.78;3.42;;;10.30;99.90;;;;;;5087444;28;20196;-76
2021/03/27 12:50:42;;;;;;;11.60;3.40;;;10.50;99.90;;;;;;5087261;28;20197;-75
2021/03/27 12:53:39;;;;;;;5.80;2.40;;;10.70;99.90;;;;;;5093328;28;20200;-76
2021/03/27 12:56:15;;;;;;;6.18;2.53;;;10.70;99.90;;;;;;5087741;28;20207;-76
2021/03/27 12:58:55;;;;;;;7.68;2.80;;;10.70;99.90;;;;;;5091075;28;20229;-77
2021/03/27 13:01:32;;;;;;;7.63;2.58;;;10.80;99.90;;;;;;5087373;28;20665;-76
2021/03/27 13:04:30;;;;;;;6.50;2.63;;;11.00;99.90;;;;;;5087229;28;20239;-77
2021/03/27 13:07:18;;;;;;;4.07;2.42;;;11.20;99.90;;;;;;5090679;28;20234;-77
2021/03/27 13:10:14;;;;;;;3.95;2.35;;;11.30;99.90;;;;;;5096844;28;20205;-78
2021/03/27 13:13:04;;;;;;;3.55;1.95;;;11.30;99.90;;;;;;5099281;28;20223;-78
2021/03/27 13:15:49;;;;;;;7.25;3.58;;;11.30;99.90;;;;;;5104360;28;20195;-77
2021/03/27 13:18:34;;;;;;;2.58;1.52;;;11.20;99.90;;;;;;5089502;28;20697;-77
2021/03/27 13:21:22;;;;;;;3.17;1.40;;;11.20;99.90;;;;;;5088505;28;20213;-78
2021/03/27 13:23:58;;;;;;;8.13;1.98;;;11.20;99.90;;;;;;5086432;28;20232;-77
2021/03/27 13:26:28;;;;;;;5.55;1.20;;;11.30;99.20;;;;;;5084171;28;20199;-77
2021/03/27 13:29:03;;;;;;;4.88;1.23;;;11.30;97.50;;;;;;5087339;28;20204;-76
2021/03/27 13:31:38;;;;;;;4.90;1.77;;;11.20;96.80;;;;;;5097154;28;20232;-76
2021/03/27 13:34:13;;;;;;;12.07;1.83;;;11.20;96.90;;;;;;5089867;28;20219;-76
2021/03/27 13:36:47;;;;;;;2.90;1.30;;;11.30;96.30;;;;;;5087359;28;20211;-76
2021/03/27 13:39:32;;;;;;;2.90;1.38;;;11.20;96.00;;;;;;5092945;28;20203;-76
2021/03/27 13:42:21;;;;;;;5.13;1.15;;;11.20;96.40;;;;;;5087878;28;20216;-77
2021/03/27 13:44:54;;;;;;;7.57;1.52;;;11.20;95.30;;;;;;5095541;28;20231;-76
2021/03/27 13:47:40;;;;;;;1.52;1.20;;;11.10;95.70;;;;;;5092765;28;20218;-76
2021/03/27 13:50:42;;;;;;;2.72;1.65;;;11.10;94.80;;;;;;5086426;28;20204;-75
2021/03/27 13:53:33;;;;;;;5.53;2.33;;;11.10;94.70;;;;;;5086870;28;20199;-77
2021/03/27 13:56:25;;;;;;;3.28;1.35;;;11.00;95.10;;;;;;5085648;28;20234;-77
2021/03/27 13:59:11;;;;;;;4.90;1.70;;;11.00;95.00;;;;;;5089938;28;20286;-76
2021/03/27 14:01:45;;;;;;;3.70;1.70;;;10.90;95.20;;;;;;5092767;28;20611;-76
2021/03/27 14:04:18;;;;;;;4.07;1.50;;;10.80;95.20;;;;;;5086992;28;20245;-78
2021/03/27 14:06:56;;;;;;;6.85;1.90;;;10.70;95.70;;;;;;5085490;28;20201;-77
2021/03/27 14:09:34;;;;;;;6.28;1.80;;;10.60;95.50;;;;;;5085568;28;20957;-75
2021/03/27 14:12:07;;;;;;;3.88;1.60;;;10.60;96.80;;;;;;5085773;28;20197;-75
2021/03/27 14:14:36;;;;;;;6.15;1.70;;;10.60;97.20;;;;;;5089566;28;20263;-73
2021/03/27 14:17:25;;;;;;;3.92;1.60;;;10.70;97.40;;;;;;5087754;28;20196;-76
2021/03/27 14:20:12;;;;;;;6.13;1.63;;;10.80;97.70;;;;;;5092619;28;20231;-76
2021/03/27 14:22:53;;;;;;;6.00;1.67;;;10.90;97.70;;;;;;5090568;28;20204;-76
2021/03/27 14:25:29;;;;;;;3.80;1.80;;;10.90;96.00;;;;;;5089748;28;20263;-76
2021/03/27 14:28:05;;;;;;;6.10;1.70;;;10.80;96.50;;;;;;5085386;28;20208;-73
2021/03/27 14:31:08;;;;;;;3.88;1.80;;;10.90;96.10;;;;;;5088003;28;20203;-74
2021/03/27 14:34:01;;;;;;;9.13;1.30;;;10.90;94.00;;;;;;5093623;28;20198;-75